Time;durP1;ratioP1;P1;durP2;ratioP2;P2;SDS_P1;SDS_P2;PMS_P1;PMS_P2;Temp;Humidity;BMP_temperature;BMP_pressure;BME280_temperature;BME280_humidity;BME280_pressure;Samples;Min_cycle;Max_cycle;Signal;HPM_P1;HPM_P2
2022/01/20 00:03:32;;;;;;;;;30.75;28.00;;;;;-147.17;100.00;50253.47;5024160;28;51086;-64
2022/01/20 00:09:07;;;;;;;;;33.00;29.00;;;;;-147.17;100.00;50284.97;5031295;28;51299;-62
2022/01/20 00:28:08;;;;;;;;;26.50;26.25;;;;;-147.17;100.00;50292.84;5020512;28;51221;-62
2022/01/20 00:30:45;;;;;;;;;30.00;29.25;;;;;-147.17;100.00;50245.59;5026315;28;51103;-62
2022/01/20 00:38:10;;;;;;;;;33.00;27.50;;;;;-147.17;100.00;50296.78;5027273;28;51127;-62
2022/01/20 00:40:36;;;;;;;;;22.00;21.75;;;;;-147.17;100.00;50284.97;5030303;28;51657;-62
2022/01/20 00:43:01;;;;;;;;;31.25;30.00;;;;;-147.17;100.00;50300.72;5021793;28;50934;-61
2022/01/20 00:45:27;;;;;;;;;27.75;26.75;;;;;-147.17;100.00;50320.38;5028531;28;51768;-62
2022/01/20 00:47:52;;;;;;;;;28.50;24.50;;;;;-147.17;100.00;50324.31;5029499;28;51144;-61
2022/01/20 00:50:17;;;;;;;;;26.50;23.75;;;;;-147.17;100.00;50320.38;5027398;28;51121;-61
2022/01/20 00:52:43;;;;;;;;;27.75;26.00;;;;;-147.17;100.00;50296.78;5031607;28;50960;-62
2022/01/20 00:55:08;;;;;;;;;26.50;25.75;;;;;-147.17;100.00;50300.72;5024668;28;51256;-61
2022/01/20 00:57:34;;;;;;;;;29.75;27.75;;;;;-147.17;100.00;50286.94;5028699;28;51039;-62
2022/01/20 00:59:59;;;;;;;;;26.50;24.00;;;;;-147.17;100.00;50296.78;5025405;28;51470;-62
2022/01/20 01:02:25;;;;;;;;;24.75;24.00;;;;;-147.17;100.00;50332.19;5011740;28;51227;-62
2022/01/20 01:04:51;;;;;;;;;23.50;22.50;;;;;-147.17;100.00;50318.41;5026753;28;51935;-63
2022/01/20 01:09:42;;;;;;;;;20.75;20.75;;;;;-147.17;100.00;50275.13;5022388;28;51293;-62
2022/01/20 01:12:13;;;;;;;;;19.75;19.00;;;;;-147.17;100.00;50279.06;5031472;28;50901;-62
2022/01/20 01:14:44;;;;;;;;;21.75;20.25;;;;;-147.17;100.00;50312.53;5015538;28;51458;-62
2022/01/20 01:24:46;;;;;;;;;16.00;14.75;;;;;-147.17;100.00;50316.44;5027364;28;51664;-63
2022/01/20 01:27:13;;;;;;;;;19.25;19.25;;;;;-147.17;100.00;50332.19;5023934;28;51165;-61
2022/01/20 01:32:10;;;;;;;;;17.00;16.50;;;;;-147.17;100.00;50312.53;5024639;28;51134;-61
2022/01/20 01:34:39;;;;;;;;;17.00;17.00;;;;;-147.17;100.00;50347.94;5018455;28;51646;-63
2022/01/20 01:37:07;;;;;;;;;17.00;15.00;;;;;-147.17;100.00;50355.81;5023297;28;51290;-62
2022/01/20 01:39:33;;;;;;;;;18.75;16.50;;;;;-147.17;100.00;50387.31;5022018;28;50995;-62
2022/01/20 01:42:00;;;;;;;;;15.50;13.75;;;;;-147.17;100.00;50342.03;5022281;28;51334;-62
2022/01/20 01:44:29;;;;;;;;;20.00;15.50;;;;;-147.17;100.00;50344.00;5012654;28;51981;-62
2022/01/20 01:46:58;;;;;;;;;16.50;15.75;;;;;-147.17;100.00;50351.88;5016117;28;51144;-62
2022/01/20 01:49:23;;;;;;;;;15.00;14.00;;;;;-147.17;100.00;50344.00;5014172;28;51683;-62
2022/01/20 01:51:49;;;;;;;;;8.00;7.75;;;;;-147.17;100.00;50361.72;5023419;28;51443;-62
2022/01/20 01:54:16;;;;;;;;;19.50;17.00;;;;;-147.17;100.00;50336.13;5016123;28;52267;-62
2022/01/20 01:56:43;;;;;;;;;16.50;16.00;;;;;-147.17;100.00;50345.97;5025993;28;51235;-62
2022/01/20 01:59:09;;;;;;;;;18.50;15.75;;;;;-147.17;100.00;50304.66;5016945;28;51359;-63
2022/01/20 02:01:37;;;;;;;;;15.00;14.75;;;;;-147.17;100.00;50347.94;5020173;28;51097;-63
2022/01/20 02:04:13;;;;;;;;;13.75;13.50;;;;;-147.17;100.00;50373.53;5018769;28;51637;-62
2022/01/20 02:20:01;;;;;;;;;14.50;14.00;;;;;-147.17;100.00;50347.94;5020454;28;51129;-63
2022/01/20 02:22:26;;;;;;;;;17.00;16.00;;;;;-147.17;100.00;50357.78;5026339;28;51292;-61
2022/01/20 02:24:52;;;;;;;;;18.00;15.25;;;;;-147.17;100.00;50391.25;5031027;28;52643;-62
2022/01/20 02:27:17;;;;;;;;;15.00;13.50;;;;;-147.17;100.00;50363.69;5023763;28;51079;-62
2022/01/20 02:29:46;;;;;;;;;13.75;13.25;;;;;-147.17;100.00;50391.25;5028284;28;51283;-62
2022/01/20 02:32:12;;;;;;;;;11.75;11.50;;;;;-147.17;100.00;50385.34;5017933;28;51210;-63
2022/01/20 02:34:37;;;;;;;;;11.25;10.00;;;;;-147.17;100.00;50379.44;5029018;28;52125;-62
2022/01/20 02:37:07;;;;;;;;;14.00;13.00;;;;;-147.17;100.00;50342.03;5032241;28;51141;-62
2022/01/20 02:44:59;;;;;;;;;13.50;13.25;;;;;-147.17;100.00;50361.72;5028488;28;51448;-62
2022/01/20 02:47:27;;;;;;;;;17.25;15.00;;;;;-147.17;100.00;50375.50;5024620;28;51037;-62
2022/01/20 02:49:53;;;;;;;;;13.50;13.00;;;;;-147.17;100.00;50381.41;5020759;28;51190;-62
2022/01/20 02:52:20;;;;;;;;;15.50;14.00;;;;;-147.17;100.00;50369.59;5017660;28;51039;-62
2022/01/20 02:54:45;;;;;;;;;14.00;13.00;;;;;-147.17;100.00;50359.75;5027235;28;51140;-62
2022/01/20 02:57:11;;;;;;;;;13.50;11.50;;;;;-147.17;100.00;50385.34;5027768;28;51282;-62
2022/01/20 02:59:38;;;;;;;;;13.00;11.75;;;;;-147.17;100.00;50367.63;5022330;28;50931;-62
2022/01/20 03:02:05;;;;;;;;;14.00;13.00;;;;;-147.17;100.00;50369.59;5024271;28;51284;-62
2022/01/20 03:04:31;;;;;;;;;14.25;13.00;;;;;-147.17;100.00;50407.00;5018192;28;51847;-62
2022/01/20 03:06:58;;;;;;;;;11.50;9.75;;;;;-147.17;100.00;50387.31;5024121;28;50982;-62
2022/01/20 03:09:24;;;;;;;;;8.75;8.50;;;;;-147.17;100.00;50401.09;5030260;28;51040;-62
2022/01/20 03:11:50;;;;;;;;;9.00;9.00;;;;;-147.17;100.00;50395.19;5018514;28;51197;-62
2022/01/20 03:14:17;;;;;;;;;9.00;9.00;;;;;-147.17;100.00;50408.97;5023507;28;51181;-66
2022/01/20 03:16:47;;;;;;;;;9.00;8.50;;;;;-147.17;100.00;50397.16;5017342;28;51121;-62
2022/01/20 03:19:13;;;;;;;;;7.50;7.50;;;;;-147.17;100.00;50395.19;5017700;28;50888;-62
2022/01/20 03:21:40;;;;;;;;;9.00;8.00;;;;;-147.17;100.00;50418.81;5017776;28;51414;-62
2022/01/20 03:24:07;;;;;;;;;10.25;8.75;;;;;-147.17;100.00;50442.44;5014280;28;52809;-62
2022/01/20 03:26:32;;;;;;;;;11.00;9.50;;;;;-147.17;100.00;50434.56;5018203;28;51131;-62
2022/01/20 03:28:58;;;;;;;;;7.25;7.25;;;;;-147.17;100.00;50416.84;5018647;28;51054;-62
2022/01/20 03:31:25;;;;;;;;;9.50;8.50;;;;;-147.17;100.00;50389.28;5020058;28;51178;-62
2022/01/20 03:33:50;;;;;;;;;6.75;5.50;;;;;-147.17;100.00;50414.88;5011965;28;51630;-62
2022/01/20 03:36:16;;;;;;;;;12.25;12.00;;;;;-147.17;100.00;50389.28;5029025;28;51085;-62
2022/01/20 03:38:41;;;;;;;;;10.25;8.75;;;;;-147.17;100.00;50408.97;5017205;28;51186;-62
2022/01/20 03:41:06;;;;;;;;;13.00;9.50;;;;;-147.17;100.00;50418.81;5015943;28;51224;-62
2022/01/20 03:43:32;;;;;;;;;10.25;10.00;;;;;-147.17;100.00;50407.00;5028298;28;51837;-62
2022/01/20 03:45:59;;;;;;;;;9.00;7.00;;;;;-147.17;100.00;50434.56;5021251;28;51177;-62
2022/01/20 03:48:27;;;;;;;;;3.50;3.00;;;;;-147.17;100.00;50403.06;5022576;28;51379;-62
2022/01/20 03:50:59;;;;;;;;;8.00;7.00;;;;;-147.17;100.00;50424.72;5017891;28;51253;-62
2022/01/20 03:53:25;;;;;;;;;7.50;7.00;;;;;-147.17;100.00;50444.41;5013972;28;51273;-61
2022/01/20 03:55:51;;;;;;;;;7.00;6.50;;;;;-147.17;100.00;50391.25;5026009;28;50964;-62
2022/01/20 03:58:16;;;;;;;;;7.00;6.25;;;;;-147.17;100.00;50416.84;5029545;28;51179;-61
2022/01/20 04:00:43;;;;;;;;;8.00;7.75;;;;;-147.17;100.00;50438.50;5019782;28;51400;-62
2022/01/20 04:03:10;;;;;;;;;7.00;6.50;;;;;-147.17;100.00;50442.44;5023338;28;52728;-61
2022/01/20 04:05:39;;;;;;;;;7.50;6.00;;;;;-147.17;100.00;50414.88;4996973;28;51218;-61
2022/01/20 04:08:06;;;;;;;;;7.75;7.50;;;;;-147.17;100.00;50399.13;5024201;28;51061;-61
2022/01/20 04:10:32;;;;;;;;;7.00;7.00;;;;;-147.17;100.00;50462.13;5030448;28;51433;-61
2022/01/20 04:12:57;;;;;;;;;4.50;3.75;;;;;-147.17;100.00;50430.63;5015777;28;51959;-61
2022/01/20 04:15:26;;;;;;;;;8.50;7.75;;;;;-147.17;100.00;50426.69;5014784;28;51087;-62
2022/01/20 04:17:55;;;;;;;;;9.00;8.75;;;;;-147.17;100.00;50389.28;5015370;28;51184;-62
2022/01/20 04:20:21;;;;;;;;;6.50;6.50;;;;;-147.17;100.00;50371.56;5027064;28;51216;-62
2022/01/20 04:22:46;;;;;;;;;8.25;6.50;;;;;-147.17;100.00;50422.75;5023017;28;52889;-61
2022/01/20 04:25:11;;;;;;;;;7.00;6.00;;;;;-147.17;100.00;50403.06;5019431;28;51294;-62
2022/01/20 04:27:37;;;;;;;;;7.50;7.00;;;;;-147.17;100.00;50420.78;5021569;28;51083;-62
2022/01/20 04:30:03;;;;;;;;;7.75;7.25;;;;;-147.17;100.00;50438.50;5019656;28;51126;-61
2022/01/20 04:32:28;;;;;;;;;7.50;7.00;;;;;-147.17;100.00;50403.06;5014132;28;52150;-61
2022/01/20 04:34:54;;;;;;;;;8.25;7.00;;;;;-147.17;100.00;50399.13;5023926;28;51614;-63
2022/01/20 04:37:20;;;;;;;;;8.00;6.50;;;;;-147.17;100.00;50412.91;5024502;28;51234;-63
2022/01/20 04:39:49;;;;;;;;;8.50;7.25;;;;;-147.17;100.00;50407.00;5026265;28;51445;-60
2022/01/20 04:42:14;;;;;;;;;9.00;8.75;;;;;-147.17;100.00;50408.97;5032193;28;51862;-63
2022/01/20 04:44:55;;;;;;;;;7.75;7.00;;;;;-147.17;100.00;50414.88;5016194;28;51075;-62
2022/01/20 04:58:17;;;;;;;;;10.50;8.25;;;;;-147.17;100.00;50405.03;5013976;28;51012;-61
2022/01/20 05:00:43;;;;;;;;;7.75;6.00;;;;;-147.17;100.00;50414.88;5030592;28;51398;-61
2022/01/20 05:03:08;;;;;;;;;6.75;6.50;;;;;-147.17;100.00;50405.03;5019643;28;52751;-61
2022/01/20 05:05:34;;;;;;;;;8.75;5.75;;;;;-147.17;100.00;50407.00;5012387;28;51211;-61
2022/01/20 05:08:01;;;;;;;;;8.50;6.00;;;;;-147.17;100.00;50422.75;5014747;28;51023;-63
2022/01/20 05:10:29;;;;;;;;;7.00;6.00;;;;;-147.17;100.00;50428.66;5030926;28;51724;-62
2022/01/20 05:15:21;;;;;;;;;7.00;6.00;;;;;-147.17;100.00;50430.63;5024382;28;53856;-62
2022/01/20 05:17:47;;;;;;;;;7.50;5.75;;;;;-147.17;100.00;50412.91;5018380;28;50892;-62
2022/01/20 05:20:13;;;;;;;;;9.00;7.25;;;;;-147.17;100.00;50395.19;5013696;28;51303;-62
2022/01/20 05:22:38;;;;;;;;;7.00;6.50;;;;;-147.17;100.00;50403.06;5027599;28;51179;-61
2022/01/20 05:25:05;;;;;;;;;8.00;7.00;;;;;-147.17;100.00;50446.38;5029078;28;51190;-61
2022/01/20 05:27:31;;;;;;;;;8.00;7.50;;;;;-147.17;100.00;50422.75;5019466;28;51280;-63
2022/01/20 05:29:57;;;;;;;;;6.25;5.00;;;;;-147.17;100.00;50438.50;5017734;28;51848;-63
2022/01/20 05:32:24;;;;;;;;;7.50;6.25;;;;;-147.17;100.00;50395.19;5020223;28;51836;-62
2022/01/20 05:34:49;;;;;;;;;6.75;6.00;;;;;-147.17;100.00;50393.22;5029842;28;51148;-63
2022/01/20 05:37:15;;;;;;;;;6.50;6.50;;;;;-147.17;100.00;50426.69;5032042;28;51315;-63
2022/01/20 05:39:40;;;;;;;;;7.50;7.00;;;;;-147.17;100.00;50430.63;5024190;28;51449;-63
2022/01/20 05:42:07;;;;;;;;;6.50;6.50;;;;;-147.17;100.00;50414.88;5029459;28;50998;-61
2022/01/20 05:44:32;;;;;;;;;6.00;6.00;;;;;-147.17;100.00;50403.06;5028882;28;51211;-62
2022/01/20 05:46:58;;;;;;;;;7.00;6.00;;;;;-147.17;100.00;50420.78;5021187;28;53691;-62
2022/01/20 05:49:23;;;;;;;;;7.75;6.50;;;;;-147.17;100.00;50408.97;5019757;28;51357;-62
2022/01/20 05:51:52;;;;;;;;;8.75;6.50;;;;;-147.17;100.00;50430.63;5021405;28;53965;-62
2022/01/20 05:54:18;;;;;;;;;6.50;5.75;;;;;-147.17;100.00;50414.88;5018083;28;51081;-62
2022/01/20 05:56:44;;;;;;;;;9.25;8.00;;;;;-147.17;100.00;50414.88;5017517;28;51230;-62
2022/01/20 05:59:10;;;;;;;;;6.00;6.00;;;;;-147.17;100.00;50401.09;5027593;28;51353;-61
2022/01/20 06:01:37;;;;;;;;;7.00;6.00;;;;;-147.17;100.00;50430.63;5026429;28;51899;-60
2022/01/20 06:04:05;;;;;;;;;8.00;7.00;;;;;-147.17;100.00;50399.13;5014952;28;51193;-61
2022/01/20 06:06:31;;;;;;;;;7.00;6.25;;;;;-147.17;100.00;50426.69;5026210;28;51119;-61
2022/01/20 06:08:57;;;;;;;;;4.25;3.50;;;;;-147.17;100.00;50438.50;5019922;28;51550;-61
2022/01/20 06:11:22;;;;;;;;;7.50;6.25;;;;;-147.17;100.00;50422.75;5020250;28;52591;-62
2022/01/20 06:13:48;;;;;;;;;6.00;6.00;;;;;-147.17;100.00;50430.63;5027168;28;51246;-61
2022/01/20 06:16:14;;;;;;;;;4.00;3.25;;;;;-147.17;100.00;50418.81;5021494;28;51146;-62
2022/01/20 06:18:39;;;;;;;;;5.75;4.00;;;;;-147.17;100.00;50418.81;5030265;28;51038;-62
2022/01/20 06:21:05;;;;;;;;;3.25;3.25;;;;;-147.17;100.00;50420.78;5032905;28;51735;-62
2022/01/20 06:23:30;;;;;;;;;5.00;2.75;;;;;-147.17;100.00;50434.56;5024738;28;50943;-62
2022/01/20 06:25:56;;;;;;;;;8.50;8.00;;;;;-147.17;100.00;50430.63;5018617;28;51299;-63
2022/01/20 06:28:22;;;;;;;;;4.50;4.25;;;;;-147.17;100.00;50405.03;5025307;28;51053;-62
2022/01/20 06:30:48;;;;;;;;;3.75;3.00;;;;;-147.17;100.00;50470.00;5026130;28;51251;-62
2022/01/20 06:33:14;;;;;;;;;6.50;5.50;;;;;-147.17;100.00;50436.53;5016511;28;51262;-62
2022/01/20 06:35:39;;;;;;;;;6.50;4.25;;;;;-147.17;100.00;50442.44;5028074;28;51361;-62
2022/01/20 06:38:05;;;;;;;;;5.00;3.75;;;;;-147.17;100.00;50408.97;5029105;28;51186;-62
2022/01/20 06:40:31;;;;;;;;;6.00;4.25;;;;;-147.17;100.00;50391.25;5016999;28;51565;-62
2022/01/20 06:42:57;;;;;;;;;6.25;4.50;;;;;-147.17;100.00;50424.72;5031986;28;51057;-62
2022/01/20 06:45:23;;;;;;;;;4.25;4.25;;;;;-147.17;100.00;50426.69;5028794;28;51164;-62
2022/01/20 06:47:49;;;;;;;;;6.00;3.50;;;;;-147.17;100.00;50422.75;5028130;28;55286;-62
2022/01/20 06:50:15;;;;;;;;;6.25;5.75;;;;;-147.17;100.00;50432.59;5027716;28;54320;-62
2022/01/20 06:52:40;;;;;;;;;6.50;6.00;;;;;-147.17;100.00;50407.00;5033076;28;51000;-62
2022/01/20 06:55:10;;;;;;;;;4.00;4.00;;;;;-147.17;100.00;50414.88;5024885;28;51975;-62
2022/01/20 06:57:35;;;;;;;;;6.00;3.50;;;;;-147.17;100.00;50418.81;5033239;28;51218;-62
2022/01/20 07:00:03;;;;;;;;;3.50;3.50;;;;;-147.17;100.00;50428.66;5011809;28;52837;-63
2022/01/20 07:02:28;;;;;;;;;4.25;4.25;;;;;-147.17;100.00;50438.50;5015173;28;51188;-62
2022/01/20 07:04:53;;;;;;;;;3.00;2.75;;;;;-147.17;100.00;50454.25;5017340;28;51594;-62
2022/01/20 07:07:19;;;;;;;;;4.25;3.25;;;;;-147.17;100.00;50444.41;5016250;28;51242;-62
2022/01/20 07:09:45;;;;;;;;;3.25;3.25;;;;;-147.17;100.00;50444.41;5026577;28;52311;-62
2022/01/20 07:12:11;;;;;;;;;6.00;4.25;;;;;-147.17;100.00;50444.41;5019572;28;50980;-62
2022/01/20 07:14:37;;;;;;;;;8.00;6.00;;;;;-147.17;100.00;50446.38;5020884;28;51215;-62
2022/01/20 07:17:03;;;;;;;;;6.00;4.00;;;;;-147.17;100.00;50442.44;5017621;28;51275;-61
2022/01/20 07:19:29;;;;;;;;;7.25;6.00;;;;;-147.17;100.00;50412.91;5017599;28;53023;-61
2022/01/20 07:21:54;;;;;;;;;8.25;7.75;;;;;-147.17;100.00;50432.59;5019040;28;51126;-62
2022/01/20 07:24:20;;;;;;;;;6.25;4.75;;;;;-147.17;100.00;50428.66;5018014;28;51186;-62
2022/01/20 07:26:45;;;;;;;;;6.75;6.00;;;;;-147.17;100.00;50422.75;5033672;28;51383;-61
2022/01/20 07:29:11;;;;;;;;;8.50;7.00;;;;;-147.17;100.00;50426.69;5022186;28;51815;-61
2022/01/20 07:31:36;;;;;;;;;7.25;5.00;;;;;-147.17;100.00;50405.03;5031034;28;51123;-61
2022/01/20 07:34:02;;;;;;;;;7.25;4.25;;;;;-147.17;100.00;50432.59;5019697;28;51135;-61
2022/01/20 07:36:27;;;;;;;;;9.25;7.25;;;;;-147.17;100.00;50418.81;5022206;28;51175;-60
2022/01/20 07:38:52;;;;;;;;;6.50;4.50;;;;;-147.17;100.00;50407.00;5026939;28;52974;-60
2022/01/20 07:41:18;;;;;;;;;8.00;7.00;;;;;-147.17;100.00;50414.88;5024941;28;51193;-67
2022/01/20 07:43:44;;;;;;;;;2.25;2.25;;;;;-147.17;100.00;50438.50;5024052;28;51293;-64
2022/01/20 07:46:09;;;;;;;;;7.75;7.75;;;;;-147.17;100.00;50414.88;5016444;28;51025;-63
2022/01/20 07:48:34;;;;;;;;;7.75;6.25;;;;;-147.17;100.00;50420.78;5021394;28;54550;-63
2022/01/20 07:51:02;;;;;;;;;7.00;7.00;;;;;-147.17;100.00;50420.78;5033011;28;50980;-63
2022/01/20 07:53:28;;;;;;;;;7.75;7.50;;;;;-147.17;100.00;50438.50;5023446;28;51034;-66
2022/01/20 07:55:54;;;;;;;;;12.25;10.50;;;;;-147.17;100.00;50408.97;5031963;28;51377;-64
2022/01/20 07:58:20;;;;;;;;;6.75;6.50;;;;;-147.17;100.00;50399.13;5019547;28;52720;-66
2022/01/20 08:00:45;;;;;;;;;7.00;6.00;;;;;-147.17;100.00;50407.00;5031202;28;51661;-61
2022/01/20 08:03:11;;;;;;;;;8.25;7.00;;;;;-147.17;100.00;50434.56;5026148;28;50952;-62
2022/01/20 08:05:36;;;;;;;;;10.75;10.50;;;;;-147.17;100.00;50407.00;5032409;28;51016;-61
2022/01/20 08:08:02;;;;;;;;;12.25;11.75;;;;;-147.17;100.00;50389.28;5029978;28;51301;-62
2022/01/20 08:10:27;;;;;;;;;8.75;7.00;;;;;-147.17;100.00;50426.69;5031035;28;50956;-60
2022/01/20 08:12:52;;;;;;;;;10.00;7.25;;;;;-147.17;100.00;50420.78;5017033;28;51062;-61
2022/01/20 08:15:18;;;;;;;;;7.00;6.25;;;;;-147.17;100.00;50408.97;5030337;28;50978;-62
2022/01/20 08:17:44;;;;;;;;;9.00;8.00;;;;;-147.17;100.00;50418.81;5009575;28;53899;-63
2022/01/20 08:20:10;;;;;;;;;8.25;7.00;;;;;-147.17;100.00;50389.28;5021927;28;50989;-63
2022/01/20 08:22:36;;;;;;;;;12.25;9.00;;;;;-147.17;100.00;50428.66;5013953;28;51162;-63
2022/01/20 08:25:04;;;;;;;;;9.00;8.25;;;;;-147.17;100.00;50426.69;5019288;28;51164;-64
2022/01/20 08:27:30;;;;;;;;;9.50;9.50;;;;;-147.17;100.00;50428.66;5024717;28;52139;-63
2022/01/20 08:29:55;;;;;;;;;12.25;9.50;;;;;-147.17;100.00;50430.63;5014109;28;51628;-63
2022/01/20 08:32:20;;;;;;;;;12.00;11.00;;;;;-147.17;100.00;50428.66;5014869;28;51542;-61
2022/01/20 08:34:46;;;;;;;;;8.25;7.50;;;;;-147.17;100.00;50456.22;5016716;28;51579;-62
2022/01/20 08:37:11;;;;;;;;;9.00;9.00;;;;;-147.17;100.00;50440.47;5022601;28;52722;-62
2022/01/20 08:42:05;;;;;;;;;10.50;10.25;;;;;-147.17;100.00;50466.06;5025614;28;50877;-68
2022/01/20 08:44:30;;;;;;;;;11.75;8.75;;;;;-147.17;100.00;50470.00;5031950;28;51084;-66
2022/01/20 08:46:57;;;;;;;;;12.00;8.25;;;;;-147.17;100.00;50428.66;5032001;28;51240;-66
2022/01/20 08:49:24;;;;;;;;;8.00;7.25;;;;;-147.17;100.00;50442.44;5031884;28;51111;-66
2022/01/20 08:51:50;;;;;;;;;9.50;8.25;;;;;-147.17;100.00;50450.31;5032656;28;51175;-67
2022/01/20 08:54:16;;;;;;;;;12.50;9.25;;;;;-147.17;100.00;50464.09;5031505;28;51205;-65
2022/01/20 08:56:43;;;;;;;;;11.25;9.00;;;;;-147.17;100.00;50462.13;5012133;28;51214;-67
2022/01/20 08:59:10;;;;;;;;;10.00;10.00;;;;;-147.17;100.00;50420.78;5012452;28;50965;-67
2022/01/20 09:01:39;;;;;;;;;7.25;7.25;;;;;-147.17;100.00;50440.47;5012373;28;50876;-67
2022/01/20 09:04:05;;;;;;;;;12.00;9.00;;;;;-147.17;100.00;50438.50;5012434;28;51078;-68
2022/01/20 09:06:30;;;;;;;;;11.25;10.75;;;;;-147.17;100.00;50458.19;5011663;28;51855;-67
2022/01/20 09:08:57;;;;;;;;;9.25;9.00;;;;;-147.17;100.00;50444.41;5023784;28;51262;-67
2022/01/20 09:11:24;;;;;;;;;12.25;11.75;;;;;-147.17;100.00;50485.75;5011074;28;50870;-68
2022/01/20 09:16:36;;;;;;;;;9.00;9.00;;;;;-147.17;100.00;50468.03;5012121;28;51003;-66
2022/01/20 09:19:02;;;;;;;;;12.00;9.50;;;;;-147.17;100.00;50503.47;5011510;28;50890;-67
2022/01/20 09:21:28;;;;;;;;;12.75;12.00;;;;;-147.17;100.00;50483.78;5010844;28;51199;-66
2022/01/20 09:23:55;;;;;;;;;13.25;11.25;;;;;-147.17;100.00;50497.56;5012137;28;50966;-66
2022/01/20 09:26:22;;;;;;;;;14.00;12.00;;;;;-147.17;100.00;50491.66;5011927;28;51165;-67
2022/01/20 09:28:47;;;;;;;;;12.50;9.50;;;;;-147.17;100.00;50485.75;5023753;28;51110;-66
2022/01/20 09:31:13;;;;;;;;;12.25;12.25;;;;;-147.17;100.00;50471.97;5011589;28;50824;-65
2022/01/20 09:33:39;;;;;;;;;9.50;8.75;;;;;-147.17;100.00;50466.06;5011836;28;51110;-67
2022/01/20 09:36:10;;;;;;;;;14.00;11.25;;;;;-147.17;100.00;50456.22;5021248;28;52871;-66
2022/01/20 09:38:35;;;;;;;;;13.75;12.75;;;;;-147.17;100.00;50477.88;5013955;28;51305;-66
2022/01/20 09:41:02;;;;;;;;;13.25;9.25;;;;;-147.17;100.00;50501.50;5011911;28;51095;-66
2022/01/20 09:43:28;;;;;;;;;19.25;15.25;;;;;-147.17;100.00;50462.13;5016244;28;51183;-65
2022/01/20 09:45:55;;;;;;;;;12.00;10.00;;;;;-147.17;100.00;50471.97;5017756;28;52802;-66
2022/01/20 09:48:22;;;;;;;;;14.75;13.00;;;;;-147.17;100.00;50493.63;5030830;28;50951;-67
2022/01/20 09:50:48;;;;;;;;;16.25;15.25;;;;;-147.17;100.00;50485.75;5031688;28;51177;-66
2022/01/20 09:53:14;;;;;;;;;13.00;11.00;;;;;-147.17;100.00;50489.69;5025757;28;51431;-66
2022/01/20 09:55:40;;;;;;;;;14.00;12.00;;;;;-147.17;100.00;50499.53;5011260;28;51163;-66
2022/01/20 09:58:06;;;;;;;;;10.25;10.00;;;;;-147.17;100.00;50523.16;5016688;28;51222;-66
2022/01/20 10:00:33;;;;;;;;;10.75;10.00;;;;;-147.17;100.00;50495.59;5031472;28;51182;-65
2022/01/20 10:03:05;;;;;;;;;13.00;13.00;;;;;-147.17;100.00;50485.75;5030943;28;51309;-65
2022/01/20 10:05:38;;;;;;;;;13.75;12.50;;;;;-147.17;100.00;50485.75;5031127;28;51051;-66
2022/01/20 10:08:16;;;;;;;;;13.00;12.25;;;;;-147.17;100.00;50464.09;5031338;28;50932;-66
2022/01/20 10:10:49;;;;;;;;;13.00;12.75;;;;;-147.17;100.00;50489.69;5031523;28;51292;-66
2022/01/20 10:13:18;;;;;;;;;14.00;11.00;;;;;-147.17;100.00;50499.53;5031571;28;51049;-67
2022/01/20 10:16:03;;;;;;;;;16.75;14.75;;;;;-147.17;100.00;50509.38;5030998;28;52777;-67
2022/01/20 10:18:30;;;;;;;;;11.50;10.00;;;;;-147.17;100.00;50519.22;5030420;28;51038;-66
2022/01/20 10:21:15;;;;;;;;;12.75;12.50;;;;;-147.17;100.00;50497.56;5034769;28;51012;-66
2022/01/20 10:23:41;;;;;;;;;13.25;12.00;;;;;-147.17;100.00;50527.09;5032986;28;50945;-66
2022/01/20 10:26:16;;;;;;;;;11.50;11.00;;;;;-147.17;100.00;50554.66;5033074;28;52934;-66
2022/01/20 10:28:50;;;;;;;;;13.50;11.00;;;;;-147.17;100.00;50540.88;5029421;28;51023;-66
2022/01/20 10:31:16;;;;;;;;;12.75;11.75;;;;;-147.17;100.00;50568.44;5025923;28;51252;-66
2022/01/20 10:33:45;;;;;;;;;12.00;11.00;;;;;-147.17;100.00;50572.38;5034023;28;51206;-66
2022/01/20 10:36:12;;;;;;;;;13.50;13.50;;;;;-147.17;100.00;50556.63;5034228;28;51864;-67
2022/01/20 10:38:49;;;;;;;;;23.50;20.75;;;;;-147.17;100.00;50566.47;5032704;28;51084;-66
2022/01/20 10:41:26;;;;;;;;;12.75;11.00;;;;;-147.17;100.00;50572.38;5033596;28;50952;-67
2022/01/20 10:44:21;;;;;;;;;12.75;11.50;;;;;-147.17;100.00;50584.19;5014399;28;51025;-67
2022/01/20 10:46:55;;;;;;;;;16.00;15.00;;;;;-147.17;100.00;50580.25;5013961;28;51833;-67
2022/01/20 10:49:26;;;;;;;;;14.50;13.75;;;;;-147.17;100.00;50566.47;5013717;28;51060;-67
2022/01/20 10:52:03;;;;;;;;;13.00;11.25;;;;;-147.17;100.00;50578.28;5013765;28;51042;-67
2022/01/20 10:54:44;;;;;;;;;14.75;12.75;;;;;-147.17;100.00;50605.84;5014097;28;51264;-66
2022/01/20 10:57:11;;;;;;;;;15.00;13.00;;;;;-147.17;100.00;50584.19;5014031;28;51107;-66
2022/01/20 10:59:55;;;;;;;;;17.50;15.75;;;;;-147.17;100.00;50572.38;5014321;28;51264;-66
2022/01/20 11:02:26;;;;;;;;;14.25;12.00;;;;;-147.17;100.00;50607.81;5026124;28;51072;-67
2022/01/20 11:04:52;;;;;;;;;12.50;12.50;;;;;-147.17;100.00;50568.44;5001465;28;51356;-67
2022/01/20 11:07:17;;;;;;;;;12.75;11.75;;;;;-147.17;100.00;50635.38;5013247;28;51528;-64
2022/01/20 11:09:45;;;;;;;;;19.00;15.75;;;;;-147.17;100.00;50599.94;5012425;28;51059;-67
2022/01/20 11:12:14;;;;;;;;;15.00;12.25;;;;;-147.17;100.00;50611.75;5013659;28;51074;-67
2022/01/20 11:14:40;;;;;;;;;18.00;16.50;;;;;-147.17;100.00;50603.88;5013801;28;51376;-66
2022/01/20 11:17:06;;;;;;;;;16.00;15.00;;;;;-147.17;100.00;50623.56;5013543;28;52666;-66
2022/01/20 11:19:37;;;;;;;;;16.50;16.50;;;;;-147.17;100.00;50611.75;5020969;28;50904;-66
2022/01/20 11:22:09;;;;;;;;;16.75;13.25;;;;;-147.17;100.00;50609.78;5017431;28;51096;-66
2022/01/20 11:24:35;;;;;;;;;15.00;15.00;;;;;-147.17;100.00;50601.91;5022944;28;51298;-66
2022/01/20 11:27:01;;;;;;;;;14.00;13.00;;;;;-147.17;100.00;50649.16;5015537;28;51178;-65
2022/01/20 11:29:50;;;;;;;;;13.50;11.50;;;;;-147.17;99.84;50690.50;5027997;28;51047;-66
2022/01/20 11:32:25;;;;;;;;;12.00;9.50;;;;;-147.17;99.46;50674.75;5020468;28;51166;-67
2022/01/20 11:35:05;;;;;;;;;10.00;7.00;;;;;-147.17;98.61;50672.78;5032915;28;50996;-67
2022/01/20 11:37:34;;;;;;;;;11.00;8.33;;;;;-147.17;98.91;50662.94;5033083;28;52003;-67
2022/01/20 11:40:19;;;;;;;;;13.00;10.33;;;;;-147.17;98.42;50694.44;5032987;28;51142;-67
2022/01/20 11:43:09;;;;;;;;;11.33;8.67;;;;;-147.17;98.21;50702.31;5018011;28;51060;-66
2022/01/20 11:45:37;;;;;;;;;7.00;7.00;;;;;-147.17;99.37;50670.81;5023013;28;51035;-70
2022/01/20 11:48:16;;;;;;;;;10.00;7.00;;;;;-147.17;97.20;50718.06;5030807;28;53256;-67
2022/01/20 11:50:45;;;;;;;;;7.00;4.67;;;;;-147.17;94.20;50773.19;5020947;28;51026;-65
2022/01/20 11:53:16;;;;;;;;;9.67;8.33;;;;;-147.17;91.05;50824.38;5012617;28;51071;-67
2022/01/20 11:55:48;;;;;;;;;12.00;11.00;;;;;-147.17;90.50;50838.16;5013198;28;51363;-67
2022/01/20 11:58:16;;;;;;;;;8.33;7.00;;;;;-147.17;89.26;50798.78;5018535;28;53758;-66
2022/01/20 12:00:42;;;;;;;;;11.00;10.00;;;;;-147.17;89.62;50814.53;5018448;28;50915;-67
2022/01/20 12:03:10;;;;;;;;;8.67;7.00;;;;;-147.17;90.01;50820.44;5013043;28;51108;-66
2022/01/20 12:05:37;;;;;;;;;9.33;9.00;;;;;-147.17;89.45;50788.94;5012988;28;51050;-66
2022/01/20 12:08:10;;;;;;;;;6.33;6.33;;;;;-147.17;88.88;50802.72;5013093;28;51087;-65
2022/01/20 12:10:36;;;;;;;;;8.00;8.00;;;;;-147.17;88.74;50788.94;5013069;28;51004;-66
2022/01/20 12:13:07;;;;;;;;;7.33;7.33;;;;;-147.17;89.03;50773.19;5012854;28;51109;-65
2022/01/20 12:15:32;;;;;;;;;12.00;10.33;;;;;-147.17;89.36;50783.03;5013030;28;51409;-65
2022/01/20 12:17:58;;;;;;;;;7.00;7.00;;;;;-147.17;90.14;50747.59;5012900;28;52299;-66
2022/01/20 12:20:25;;;;;;;;;7.33;6.00;;;;;-147.17;90.52;50755.47;5012619;28;51063;-66